sensor_id;sensor_type;location;lat;lon;timestamp;temperature;humidity
12872;DHT22;6504;53.766;9.626;2023-07-31T00:01:00;16.00;99.90
12872;DHT22;6504;53.766;9.626;2023-07-31T00:03:29;16.00;99.90
12872;DHT22;6504;53.766;9.626;2023-07-31T00:05:57;16.00;99.90
12872;DHT22;6504;53.766;9.626;2023-07-31T00:08:25;16.00;99.90
12872;DHT22;6504;53.766;9.626;2023-07-31T00:10:53;16.00;99.90
12872;DHT22;6504;53.766;9.626;2023-07-31T00:13:21;16.00;99.90
12872;DHT22;6504;53.766;9.626;2023-07-31T00:15:49;16.00;99.90
12872;DHT22;6504;53.766;9.626;2023-07-31T00:18:19;16.00;99.90
12872;DHT22;6504;53.766;9.626;2023-07-31T00:20:47;16.00;99.90
12872;DHT22;6504;53.766;9.626;2023-07-31T00:23:15;16.00;99.90
12872;DHT22;6504;53.766;9.626;2023-07-31T00:25:43;16.00;99.90
12872;DHT22;6504;53.766;9.626;2023-07-31T00:28:11;15.90;99.90
12872;DHT22;6504;53.766;9.626;2023-07-31T00:30:39;15.90;99.90
12872;DHT22;6504;53.766;9.626;2023-07-31T00:33:07;15.90;99.90
12872;DHT22;6504;53.766;9.626;2023-07-31T00:35:37;15.90;99.90
12872;DHT22;6504;53.766;9.626;2023-07-31T00:38:05;15.90;99.90
12872;DHT22;6504;53.766;9.626;2023-07-31T00:40:35;15.90;99.90
12872;DHT22;6504;53.766;9.626;2023-07-31T00:43:04;15.90;99.90
12872;DHT22;6504;53.766;9.626;2023-07-31T00:45:32;15.90;99.90
12872;DHT22;6504;53.766;9.626;2023-07-31T00:48:01;15.90;99.90
12872;DHT22;6504;53.766;9.626;2023-07-31T00:50:30;15.80;99.90
12872;DHT22;6504;53.766;9.626;2023-07-31T00:52:59;15.80;99.90
12872;DHT22;6504;53.766;9.626;2023-07-31T00:55:28;15.80;99.90
12872;DHT22;6504;53.766;9.626;2023-07-31T00:57:56;15.80;99.90
12872;DHT22;6504;53.766;9.626;2023-07-31T01:00:24;15.80;99.90
12872;DHT22;6504;53.766;9.626;2023-07-31T01:02:52;15.80;99.90
12872;DHT22;6504;53.766;9.626;2023-07-31T01:05:31;15.80;99.90
12872;DHT22;6504;53.766;9.626;2023-07-31T01:08:08;15.80;99.90
12872;DHT22;6504;53.766;9.626;2023-07-31T01:10:44;15.80;99.90
12872;DHT22;6504;53.766;9.626;2023-07-31T01:13:15;15.80;99.90
12872;DHT22;6504;53.766;9.626;2023-07-31T01:15:43;15.80;99.90
12872;DHT22;6504;53.766;9.626;2023-07-31T01:18:11;15.80;99.90
12872;DHT22;6504;53.766;9.626;2023-07-31T01:20:42;15.80;99.90
12872;DHT22;6504;53.766;9.626;2023-07-31T01:23:39;15.80;99.90
12872;DHT22;6504;53.766;9.626;2023-07-31T01:26:15;15.70;99.90
12872;DHT22;6504;53.766;9.626;2023-07-31T01:28:52;15.80;99.90
12872;DHT22;6504;53.766;9.626;2023-07-31T01:31:24;15.80;99.90
12872;DHT22;6504;53.766;9.626;2023-07-31T01:33:54;15.80;99.90
12872;DHT22;6504;53.766;9.626;2023-07-31T01:36:24;15.70;99.90
12872;DHT22;6504;53.766;9.626;2023-07-31T01:38:53;15.80;99.90
12872;DHT22;6504;53.766;9.626;2023-07-31T01:41:26;15.70;99.90
12872;DHT22;6504;53.766;9.626;2023-07-31T01:43:55;15.70;99.90
12872;DHT22;6504;53.766;9.626;2023-07-31T01:46:23;15.70;99.90
12872;DHT22;6504;53.766;9.626;2023-07-31T01:48:51;15.70;99.90
12872;DHT22;6504;53.766;9.626;2023-07-31T01:51:19;15.70;99.90
12872;DHT22;6504;53.766;9.626;2023-07-31T01:53:47;15.70;99.90
12872;DHT22;6504;53.766;9.626;2023-07-31T01:56:15;15.70;99.90
12872;DHT22;6504;53.766;9.626;2023-07-31T01:58:44;15.70;99.90
12872;DHT22;6504;53.766;9.626;2023-07-31T02:01:12;15.60;99.90
12872;DHT22;6504;53.766;9.626;2023-07-31T02:03:40;15.60;99.90
12872;DHT22;6504;53.766;9.626;2023-07-31T02:06:09;15.60;99.90
12872;DHT22;6504;53.766;9.626;2023-07-31T02:08:37;15.60;99.90
12872;DHT22;6504;53.766;9.626;2023-07-31T02:11:05;15.60;99.90
12872;DHT22;6504;53.766;9.626;2023-07-31T02:13:34;15.60;99.90
12872;DHT22;6504;53.766;9.626;2023-07-31T02:16:03;15.60;99.90
12872;DHT22;6504;53.766;9.626;2023-07-31T02:18:31;15.60;99.90
12872;DHT22;6504;53.766;9.626;2023-07-31T02:20:59;15.60;99.90
12872;DHT22;6504;53.766;9.626;2023-07-31T02:23:27;15.60;99.90
12872;DHT22;6504;53.766;9.626;2023-07-31T02:25:55;15.60;99.90
12872;DHT22;6504;53.766;9.626;2023-07-31T02:28:24;15.60;99.90
12872;DHT22;6504;53.766;9.626;2023-07-31T02:30:52;15.60;99.90
12872;DHT22;6504;53.766;9.626;2023-07-31T02:33:21;15.60;99.90
12872;DHT22;6504;53.766;9.626;2023-07-31T02:35:49;15.60;99.90
12872;DHT22;6504;53.766;9.626;2023-07-31T02:38:17;15.60;99.90
12872;DHT22;6504;53.766;9.626;2023-07-31T02:40:45;15.60;99.90
12872;DHT22;6504;53.766;9.626;2023-07-31T02:43:14;15.60;99.90
12872;DHT22;6504;53.766;9.626;2023-07-31T02:45:42;15.60;99.90
12872;DHT22;6504;53.766;9.626;2023-07-31T02:48:11;15.60;99.90
12872;DHT22;6504;53.766;9.626;2023-07-31T02:50:40;15.60;99.90
12872;DHT22;6504;53.766;9.626;2023-07-31T02:53:08;15.60;99.90
12872;DHT22;6504;53.766;9.626;2023-07-31T02:55:36;15.60;99.90
12872;DHT22;6504;53.766;9.626;2023-07-31T02:58:05;15.60;99.90
12872;DHT22;6504;53.766;9.626;2023-07-31T03:00:33;15.60;99.90
12872;DHT22;6504;53.766;9.626;2023-07-31T03:03:02;15.60;99.90
12872;DHT22;6504;53.766;9.626;2023-07-31T03:05:30;15.60;99.90
12872;DHT22;6504;53.766;9.626;2023-07-31T03:07:59;15.60;99.90
12872;DHT22;6504;53.766;9.626;2023-07-31T03:10:27;15.60;99.90
12872;DHT22;6504;53.766;9.626;2023-07-31T03:12:55;15.60;99.90
12872;DHT22;6504;53.766;9.626;2023-07-31T03:15:23;15.60;99.90
12872;DHT22;6504;53.766;9.626;2023-07-31T03:17:51;15.50;99.90
12872;DHT22;6504;53.766;9.626;2023-07-31T03:20:19;15.60;99.90
12872;DHT22;6504;53.766;9.626;2023-07-31T03:22:47;15.60;99.90
12872;DHT22;6504;53.766;9.626;2023-07-31T03:25:17;15.60;99.90
12872;DHT22;6504;53.766;9.626;2023-07-31T03:27:45;15.60;99.90
12872;DHT22;6504;53.766;9.626;2023-07-31T03:30:13;15.60;99.90
12872;DHT22;6504;53.766;9.626;2023-07-31T03:32:41;15.60;99.90
12872;DHT22;6504;53.766;9.626;2023-07-31T03:35:09;15.60;99.90
12872;DHT22;6504;53.766;9.626;2023-07-31T03:37:38;15.60;99.90
12872;DHT22;6504;53.766;9.626;2023-07-31T03:40:07;15.60;99.90
12872;DHT22;6504;53.766;9.626;2023-07-31T03:42:37;15.70;99.90
12872;DHT22;6504;53.766;9.626;2023-07-31T03:45:06;15.70;99.90
12872;DHT22;6504;53.766;9.626;2023-07-31T03:47:34;15.70;99.90
12872;DHT22;6504;53.766;9.626;2023-07-31T03:50:03;15.70;99.90
12872;DHT22;6504;53.766;9.626;2023-07-31T03:52:31;15.70;99.90
12872;DHT22;6504;53.766;9.626;2023-07-31T03:54:59;15.70;99.90
12872;DHT22;6504;53.766;9.626;2023-07-31T03:57:27;15.70;99.90
12872;DHT22;6504;53.766;9.626;2023-07-31T03:59:56;15.70;99.90
12872;DHT22;6504;53.766;9.626;2023-07-31T04:02:24;15.70;99.90
12872;DHT22;6504;53.766;9.626;2023-07-31T04:04:52;15.70;99.90
12872;DHT22;6504;53.766;9.626;2023-07-31T04:07:21;15.70;99.90
12872;DHT22;6504;53.766;9.626;2023-07-31T04:09:49;15.70;99.90
12872;DHT22;6504;53.766;9.626;2023-07-31T04:12:17;15.70;99.90
12872;DHT22;6504;53.766;9.626;2023-07-31T04:14:45;15.70;99.90
12872;DHT22;6504;53.766;9.626;2023-07-31T04:17:14;15.70;99.90
12872;DHT22;6504;53.766;9.626;2023-07-31T04:19:42;15.70;99.90
12872;DHT22;6504;53.766;9.626;2023-07-31T04:22:10;15.70;99.90
12872;DHT22;6504;53.766;9.626;2023-07-31T04:24:38;15.70;99.90
12872;DHT22;6504;53.766;9.626;2023-07-31T04:27:06;15.70;99.90
12872;DHT22;6504;53.766;9.626;2023-07-31T04:29:35;15.70;99.90
12872;DHT22;6504;53.766;9.626;2023-07-31T04:32:04;15.70;99.90
12872;DHT22;6504;53.766;9.626;2023-07-31T04:34:33;15.70;99.90
12872;DHT22;6504;53.766;9.626;2023-07-31T04:37:02;15.70;99.90
12872;DHT22;6504;53.766;9.626;2023-07-31T04:39:30;15.80;99.90
12872;DHT22;6504;53.766;9.626;2023-07-31T04:41:58;15.80;99.90
12872;DHT22;6504;53.766;9.626;2023-07-31T04:44:26;15.80;99.90
12872;DHT22;6504;53.766;9.626;2023-07-31T04:46:54;15.80;99.90
12872;DHT22;6504;53.766;9.626;2023-07-31T04:49:22;15.80;99.90
12872;DHT22;6504;53.766;9.626;2023-07-31T04:51:51;15.80;99.90
12872;DHT22;6504;53.766;9.626;2023-07-31T04:54:19;15.80;99.90
12872;DHT22;6504;53.766;9.626;2023-07-31T04:56:47;15.80;99.90
12872;DHT22;6504;53.766;9.626;2023-07-31T04:59:15;15.80;99.90
12872;DHT22;6504;53.766;9.626;2023-07-31T05:01:43;15.80;99.90
12872;DHT22;6504;53.766;9.626;2023-07-31T05:04:12;15.80;99.90
12872;DHT22;6504;53.766;9.626;2023-07-31T05:06:41;15.80;99.90
12872;DHT22;6504;53.766;9.626;2023-07-31T05:09:10;15.80;99.90
12872;DHT22;6504;53.766;9.626;2023-07-31T05:11:39;15.80;99.90
12872;DHT22;6504;53.766;9.626;2023-07-31T05:14:09;15.80;99.90
12872;DHT22;6504;53.766;9.626;2023-07-31T05:16:37;15.80;99.90
12872;DHT22;6504;53.766;9.626;2023-07-31T05:19:06;15.80;99.90
12872;DHT22;6504;53.766;9.626;2023-07-31T05:21:34;15.80;99.90
12872;DHT22;6504;53.766;9.626;2023-07-31T05:24:03;15.80;99.90
12872;DHT22;6504;53.766;9.626;2023-07-31T05:26:32;15.80;99.90
12872;DHT22;6504;53.766;9.626;2023-07-31T05:29:00;15.80;99.90
12872;DHT22;6504;53.766;9.626;2023-07-31T05:31:28;15.80;99.90
12872;DHT22;6504;53.766;9.626;2023-07-31T05:33:59;15.80;99.90
12872;DHT22;6504;53.766;9.626;2023-07-31T05:36:27;15.80;99.90
12872;DHT22;6504;53.766;9.626;2023-07-31T05:38:55;15.90;99.90
12872;DHT22;6504;53.766;9.626;2023-07-31T05:41:23;15.90;99.90
12872;DHT22;6504;53.766;9.626;2023-07-31T05:43:52;15.90;99.90
12872;DHT22;6504;53.766;9.626;2023-07-31T05:46:20;15.90;99.90
12872;DHT22;6504;53.766;9.626;2023-07-31T05:48:48;15.90;99.90
12872;DHT22;6504;53.766;9.626;2023-07-31T05:51:16;15.90;99.90
12872;DHT22;6504;53.766;9.626;2023-07-31T05:53:44;15.90;99.90
12872;DHT22;6504;53.766;9.626;2023-07-31T05:56:12;15.90;99.90
12872;DHT22;6504;53.766;9.626;2023-07-31T05:58:41;15.90;99.90
12872;DHT22;6504;53.766;9.626;2023-07-31T06:01:11;15.90;99.90
12872;DHT22;6504;53.766;9.626;2023-07-31T06:03:39;15.90;99.90
12872;DHT22;6504;53.766;9.626;2023-07-31T06:06:07;15.90;99.90
12872;DHT22;6504;53.766;9.626;2023-07-31T06:08:35;15.90;99.90
12872;DHT22;6504;53.766;9.626;2023-07-31T06:11:03;15.90;99.90
12872;DHT22;6504;53.766;9.626;2023-07-31T06:13:32;15.90;99.90
12872;DHT22;6504;53.766;9.626;2023-07-31T06:16:00;15.90;99.90
12872;DHT22;6504;53.766;9.626;2023-07-31T06:18:33;15.90;99.90
12872;DHT22;6504;53.766;9.626;2023-07-31T06:21:01;15.90;99.90
12872;DHT22;6504;53.766;9.626;2023-07-31T06:23:29;15.90;99.90
12872;DHT22;6504;53.766;9.626;2023-07-31T06:25:57;15.90;99.90
12872;DHT22;6504;53.766;9.626;2023-07-31T06:28:27;15.90;99.90
12872;DHT22;6504;53.766;9.626;2023-07-31T06:30:57;15.90;99.90
12872;DHT22;6504;53.766;9.626;2023-07-31T06:33:25;16.00;99.90
12872;DHT22;6504;53.766;9.626;2023-07-31T06:35:54;16.00;99.90
12872;DHT22;6504;53.766;9.626;2023-07-31T06:38:25;16.00;99.90
12872;DHT22;6504;53.766;9.626;2023-07-31T06:40:54;16.00;99.90
12872;DHT22;6504;53.766;9.626;2023-07-31T06:43:22;16.00;99.90
12872;DHT22;6504;53.766;9.626;2023-07-31T06:45:53;16.00;99.90
12872;DHT22;6504;53.766;9.626;2023-07-31T06:48:21;16.10;99.90
12872;DHT22;6504;53.766;9.626;2023-07-31T06:50:49;16.10;99.90
12872;DHT22;6504;53.766;9.626;2023-07-31T06:53:20;16.10;99.90
12872;DHT22;6504;53.766;9.626;2023-07-31T06:55:48;16.10;99.90
12872;DHT22;6504;53.766;9.626;2023-07-31T06:58:18;16.10;99.90
12872;DHT22;6504;53.766;9.626;2023-07-31T07:00:47;16.10;99.90
12872;DHT22;6504;53.766;9.626;2023-07-31T07:03:17;16.10;99.90
12872;DHT22;6504;53.766;9.626;2023-07-31T07:05:46;16.10;99.90
12872;DHT22;6504;53.766;9.626;2023-07-31T07:08:14;16.10;99.90
12872;DHT22;6504;53.766;9.626;2023-07-31T07:10:45;16.10;99.90
12872;DHT22;6504;53.766;9.626;2023-07-31T07:13:13;16.10;99.90
12872;DHT22;6504;53.766;9.626;2023-07-31T07:15:41;16.10;99.90
12872;DHT22;6504;53.766;9.626;2023-07-31T07:18:09;16.10;99.90
12872;DHT22;6504;53.766;9.626;2023-07-31T07:20:38;16.10;99.90
12872;DHT22;6504;53.766;9.626;2023-07-31T07:23:06;16.10;99.90
12872;DHT22;6504;53.766;9.626;2023-07-31T07:25:37;16.10;99.90
12872;DHT22;6504;53.766;9.626;2023-07-31T07:28:07;16.10;99.90
12872;DHT22;6504;53.766;9.626;2023-07-31T07:30:35;16.10;99.90
12872;DHT22;6504;53.766;9.626;2023-07-31T07:33:03;16.20;99.90
12872;DHT22;6504;53.766;9.626;2023-07-31T07:35:33;16.20;99.90
12872;DHT22;6504;53.766;9.626;2023-07-31T07:38:02;16.20;99.90
12872;DHT22;6504;53.766;9.626;2023-07-31T07:40:30;16.20;99.90
12872;DHT22;6504;53.766;9.626;2023-07-31T07:42:58;16.20;99.90
12872;DHT22;6504;53.766;9.626;2023-07-31T07:45:28;16.30;99.90
12872;DHT22;6504;53.766;9.626;2023-07-31T07:47:56;16.30;99.90
12872;DHT22;6504;53.766;9.626;2023-07-31T07:50:24;16.30;99.90
12872;DHT22;6504;53.766;9.626;2023-07-31T07:52:53;16.40;99.90
12872;DHT22;6504;53.766;9.626;2023-07-31T07:55:21;16.40;99.90
12872;DHT22;6504;53.766;9.626;2023-07-31T07:57:49;16.40;99.90
12872;DHT22;6504;53.766;9.626;2023-07-31T08:00:17;16.40;99.90
12872;DHT22;6504;53.766;9.626;2023-07-31T08:02:47;16.40;99.90
12872;DHT22;6504;53.766;9.626;2023-07-31T08:05:15;16.50;99.90
12872;DHT22;6504;53.766;9.626;2023-07-31T08:07:44;16.50;99.90
12872;DHT22;6504;53.766;9.626;2023-07-31T08:10:12;16.50;99.90
12872;DHT22;6504;53.766;9.626;2023-07-31T08:12:40;16.60;99.90
12872;DHT22;6504;53.766;9.626;2023-07-31T08:15:09;16.60;99.90
12872;DHT22;6504;53.766;9.626;2023-07-31T08:17:37;16.60;99.90
12872;DHT22;6504;53.766;9.626;2023-07-31T08:20:08;16.70;99.90
12872;DHT22;6504;53.766;9.626;2023-07-31T08:22:36;16.70;99.90
12872;DHT22;6504;53.766;9.626;2023-07-31T08:25:05;16.70;99.90
12872;DHT22;6504;53.766;9.626;2023-07-31T08:27:33;16.70;99.90
12872;DHT22;6504;53.766;9.626;2023-07-31T08:30:01;16.80;99.90
12872;DHT22;6504;53.766;9.626;2023-07-31T08:32:29;16.80;99.90
12872;DHT22;6504;53.766;9.626;2023-07-31T08:34:57;16.80;99.90
12872;DHT22;6504;53.766;9.626;2023-07-31T08:37:27;16.80;99.90
12872;DHT22;6504;53.766;9.626;2023-07-31T08:39:55;16.80;99.90
12872;DHT22;6504;53.766;9.626;2023-07-31T08:42:23;16.80;99.90
12872;DHT22;6504;53.766;9.626;2023-07-31T08:44:52;16.80;99.90
12872;DHT22;6504;53.766;9.626;2023-07-31T08:47:22;16.90;99.90
12872;DHT22;6504;53.766;9.626;2023-07-31T08:49:51;16.90;99.90
12872;DHT22;6504;53.766;9.626;2023-07-31T08:52:20;16.90;99.90
12872;DHT22;6504;53.766;9.626;2023-07-31T08:54:50;16.90;99.90
12872;DHT22;6504;53.766;9.626;2023-07-31T08:57:18;16.90;99.90
12872;DHT22;6504;53.766;9.626;2023-07-31T08:59:46;16.90;99.90
12872;DHT22;6504;53.766;9.626;2023-07-31T09:02:15;16.90;99.90
12872;DHT22;6504;53.766;9.626;2023-07-31T09:04:44;16.90;99.90
12872;DHT22;6504;53.766;9.626;2023-07-31T09:07:14;16.90;99.90
12872;DHT22;6504;53.766;9.626;2023-07-31T09:09:43;17.00;99.90
12872;DHT22;6504;53.766;9.626;2023-07-31T09:12:13;17.00;99.90
12872;DHT22;6504;53.766;9.626;2023-07-31T09:14:42;17.10;99.90
12872;DHT22;6504;53.766;9.626;2023-07-31T09:17:11;17.10;99.90
12872;DHT22;6504;53.766;9.626;2023-07-31T09:19:39;17.10;99.90
12872;DHT22;6504;53.766;9.626;2023-07-31T09:22:07;17.00;99.90
12872;DHT22;6504;53.766;9.626;2023-07-31T09:24:35;17.10;99.90
12872;DHT22;6504;53.766;9.626;2023-07-31T09:27:06;17.10;99.90
12872;DHT22;6504;53.766;9.626;2023-07-31T09:29:35;17.10;99.90
12872;DHT22;6504;53.766;9.626;2023-07-31T09:32:04;17.20;99.90
12872;DHT22;6504;53.766;9.626;2023-07-31T09:34:37;17.20;99.90
12872;DHT22;6504;53.766;9.626;2023-07-31T09:37:06;17.20;99.90
12872;DHT22;6504;53.766;9.626;2023-07-31T09:39:45;17.20;99.90
12872;DHT22;6504;53.766;9.626;2023-07-31T09:42:14;17.30;99.90
12872;DHT22;6504;53.766;9.626;2023-07-31T09:44:53;17.30;99.90
12872;DHT22;6504;53.766;9.626;2023-07-31T09:47:24;17.30;99.90
12872;DHT22;6504;53.766;9.626;2023-07-31T09:49:53;17.30;99.90
12872;DHT22;6504;53.766;9.626;2023-07-31T09:52:21;17.20;99.90
12872;DHT22;6504;53.766;9.626;2023-07-31T09:54:49;17.30;99.90
12872;DHT22;6504;53.766;9.626;2023-07-31T09:57:17;17.30;99.90
12872;DHT22;6504;53.766;9.626;2023-07-31T09:59:47;17.30;99.90
12872;DHT22;6504;53.766;9.626;2023-07-31T10:02:22;17.30;99.90
12872;DHT22;6504;53.766;9.626;2023-07-31T10:04:51;17.30;99.90
12872;DHT22;6504;53.766;9.626;2023-07-31T10:07:22;17.30;99.90
12872;DHT22;6504;53.766;9.626;2023-07-31T10:09:53;17.30;99.90
12872;DHT22;6504;53.766;9.626;2023-07-31T10:12:23;17.30;99.90
12872;DHT22;6504;53.766;9.626;2023-07-31T10:14:54;17.30;99.90
12872;DHT22;6504;53.766;9.626;2023-07-31T10:17:25;17.30;99.90
12872;DHT22;6504;53.766;9.626;2023-07-31T10:19:53;17.30;99.90
12872;DHT22;6504;53.766;9.626;2023-07-31T10:22:22;17.30;99.90
12872;DHT22;6504;53.766;9.626;2023-07-31T10:24:50;17.20;99.90
12872;DHT22;6504;53.766;9.626;2023-07-31T10:27:20;17.10;99.90
12872;DHT22;6504;53.766;9.626;2023-07-31T10:29:48;17.10;99.90
12872;DHT22;6504;53.766;9.626;2023-07-31T10:32:18;17.10;99.90
12872;DHT22;6504;53.766;9.626;2023-07-31T10:34:49;17.10;99.90
12872;DHT22;6504;53.766;9.626;2023-07-31T10:37:24;17.10;99.90
12872;DHT22;6504;53.766;9.626;2023-07-31T10:39:57;17.10;99.90
12872;DHT22;6504;53.766;9.626;2023-07-31T10:42:30;17.10;99.90
12872;DHT22;6504;53.766;9.626;2023-07-31T10:45:00;17.10;99.90
12872;DHT22;6504;53.766;9.626;2023-07-31T10:47:28;17.10;99.90
12872;DHT22;6504;53.766;9.626;2023-07-31T10:50:17;17.10;99.90
12872;DHT22;6504;53.766;9.626;2023-07-31T10:52:47;17.10;99.90
12872;DHT22;6504;53.766;9.626;2023-07-31T10:55:24;17.10;99.90
12872;DHT22;6504;53.766;9.626;2023-07-31T10:57:53;17.10;99.90
12872;DHT22;6504;53.766;9.626;2023-07-31T11:00:24;17.10;99.90
12872;DHT22;6504;53.766;9.626;2023-07-31T11:03:00;17.10;99.90
12872;DHT22;6504;53.766;9.626;2023-07-31T11:05:44;17.10;99.90
12872;DHT22;6504;53.766;9.626;2023-07-31T11:08:15;17.10;99.90
12872;DHT22;6504;53.766;9.626;2023-07-31T11:10:44;17.20;99.90
12872;DHT22;6504;53.766;9.626;2023-07-31T11:13:12;17.20;99.90
12872;DHT22;6504;53.766;9.626;2023-07-31T11:15:40;17.20;99.90
12872;DHT22;6504;53.766;9.626;2023-07-31T11:18:08;17.20;99.90
12872;DHT22;6504;53.766;9.626;2023-07-31T11:20:38;17.30;99.90
12872;DHT22;6504;53.766;9.626;2023-07-31T11:23:09;17.30;99.90
12872;DHT22;6504;53.766;9.626;2023-07-31T11:25:39;17.30;99.90
12872;DHT22;6504;53.766;9.626;2023-07-31T11:28:09;17.30;99.90
12872;DHT22;6504;53.766;9.626;2023-07-31T11:30:38;17.40;99.90
12872;DHT22;6504;53.766;9.626;2023-07-31T11:33:08;17.40;99.90
12872;DHT22;6504;53.766;9.626;2023-07-31T11:35:45;17.40;99.90
12872;DHT22;6504;53.766;9.626;2023-07-31T11:38:22;17.40;99.90
12872;DHT22;6504;53.766;9.626;2023-07-31T11:40:51;17.40;99.90
12872;DHT22;6504;53.766;9.626;2023-07-31T11:43:20;17.50;99.90
12872;DHT22;6504;53.766;9.626;2023-07-31T11:45:51;17.50;99.90
12872;DHT22;6504;53.766;9.626;2023-07-31T11:48:20;17.40;99.90
12872;DHT22;6504;53.766;9.626;2023-07-31T11:50:50;17.50;99.90
12872;DHT22;6504;53.766;9.626;2023-07-31T11:53:25;17.50;99.90
12872;DHT22;6504;53.766;9.626;2023-07-31T11:55:54;17.50;99.90
12872;DHT22;6504;53.766;9.626;2023-07-31T11:58:23;17.50;99.90
12872;DHT22;6504;53.766;9.626;2023-07-31T12:00:52;17.50;99.90
12872;DHT22;6504;53.766;9.626;2023-07-31T12:03:20;17.50;99.90
12872;DHT22;6504;53.766;9.626;2023-07-31T12:05:48;17.50;99.90
12872;DHT22;6504;53.766;9.626;2023-07-31T12:08:17;17.60;99.90
12872;DHT22;6504;53.766;9.626;2023-07-31T12:10:50;17.50;99.90
12872;DHT22;6504;53.766;9.626;2023-07-31T12:13:21;17.50;99.90
12872;DHT22;6504;53.766;9.626;2023-07-31T12:15:54;17.50;99.90
12872;DHT22;6504;53.766;9.626;2023-07-31T12:18:24;17.60;99.90
12872;DHT22;6504;53.766;9.626;2023-07-31T12:20:56;17.60;99.90
12872;DHT22;6504;53.766;9.626;2023-07-31T12:23:26;17.70;99.90
12872;DHT22;6504;53.766;9.626;2023-07-31T12:26:03;17.70;99.90
12872;DHT22;6504;53.766;9.626;2023-07-31T12:28:35;17.70;99.90
12872;DHT22;6504;53.766;9.626;2023-07-31T12:31:05;17.70;99.90
12872;DHT22;6504;53.766;9.626;2023-07-31T12:33:34;17.70;99.90
12872;DHT22;6504;53.766;9.626;2023-07-31T12:36:03;17.70;99.90
12872;DHT22;6504;53.766;9.626;2023-07-31T12:38:32;17.70;99.90
12872;DHT22;6504;53.766;9.626;2023-07-31T12:41:00;17.70;99.90
12872;DHT22;6504;53.766;9.626;2023-07-31T12:43:30;17.70;99.90
12872;DHT22;6504;53.766;9.626;2023-07-31T12:45:58;17.60;99.90
12872;DHT22;6504;53.766;9.626;2023-07-31T12:48:26;17.60;99.90
12872;DHT22;6504;53.766;9.626;2023-07-31T12:50:55;17.60;99.90
12872;DHT22;6504;53.766;9.626;2023-07-31T12:53:23;17.60;99.90
12872;DHT22;6504;53.766;9.626;2023-07-31T12:55:51;17.60;99.90
12872;DHT22;6504;53.766;9.626;2023-07-31T12:58:19;17.60;99.90
12872;DHT22;6504;53.766;9.626;2023-07-31T13:00:48;17.60;99.90
12872;DHT22;6504;53.766;9.626;2023-07-31T13:03:16;17.60;99.90
12872;DHT22;6504;53.766;9.626;2023-07-31T13:05:45;17.60;99.90
12872;DHT22;6504;53.766;9.626;2023-07-31T13:08:13;17.60;99.90
12872;DHT22;6504;53.766;9.626;2023-07-31T13:10:42;17.60;99.90
12872;DHT22;6504;53.766;9.626;2023-07-31T13:13:11;17.50;99.90
12872;DHT22;6504;53.766;9.626;2023-07-31T13:15:39;17.50;99.90
12872;DHT22;6504;53.766;9.626;2023-07-31T13:18:08;17.40;99.90
12872;DHT22;6504;53.766;9.626;2023-07-31T13:20:36;17.40;99.90
12872;DHT22;6504;53.766;9.626;2023-07-31T13:23:04;17.40;99.90
12872;DHT22;6504;53.766;9.626;2023-07-31T13:25:32;17.40;99.90
12872;DHT22;6504;53.766;9.626;2023-07-31T13:28:00;17.40;99.90
12872;DHT22;6504;53.766;9.626;2023-07-31T13:30:29;17.30;99.90
12872;DHT22;6504;53.766;9.626;2023-07-31T13:32:57;17.30;99.90
12872;DHT22;6504;53.766;9.626;2023-07-31T13:35:27;17.30;99.90
12872;DHT22;6504;53.766;9.626;2023-07-31T13:37:55;17.30;99.90
12872;DHT22;6504;53.766;9.626;2023-07-31T13:40:23;17.30;99.90
12872;DHT22;6504;53.766;9.626;2023-07-31T13:42:51;17.30;99.90
12872;DHT22;6504;53.766;9.626;2023-07-31T13:45:20;17.20;99.90
12872;DHT22;6504;53.766;9.626;2023-07-31T13:47:49;17.20;99.90
12872;DHT22;6504;53.766;9.626;2023-07-31T13:50:18;17.20;99.90
12872;DHT22;6504;53.766;9.626;2023-07-31T13:52:49;17.20;99.90
12872;DHT22;6504;53.766;9.626;2023-07-31T13:55:17;17.10;99.90
12872;DHT22;6504;53.766;9.626;2023-07-31T13:57:45;17.20;99.90
12872;DHT22;6504;53.766;9.626;2023-07-31T14:00:14;17.20;99.90
12872;DHT22;6504;53.766;9.626;2023-07-31T14:02:42;17.20;99.90
12872;DHT22;6504;53.766;9.626;2023-07-31T14:05:10;17.20;99.90
12872;DHT22;6504;53.766;9.626;2023-07-31T14:07:38;17.20;99.90
12872;DHT22;6504;53.766;9.626;2023-07-31T14:10:08;17.20;99.90
12872;DHT22;6504;53.766;9.626;2023-07-31T14:12:36;17.20;99.90
12872;DHT22;6504;53.766;9.626;2023-07-31T14:15:09;17.20;99.90
12872;DHT22;6504;53.766;9.626;2023-07-31T14:17:38;17.20;99.90
12872;DHT22;6504;53.766;9.626;2023-07-31T14:20:07;17.20;99.90
12872;DHT22;6504;53.766;9.626;2023-07-31T14:22:36;17.20;99.90
12872;DHT22;6504;53.766;9.626;2023-07-31T14:25:07;17.20;99.90
12872;DHT22;6504;53.766;9.626;2023-07-31T14:27:37;17.10;99.90
12872;DHT22;6504;53.766;9.626;2023-07-31T14:30:06;17.10;99.90
12872;DHT22;6504;53.766;9.626;2023-07-31T14:32:36;17.10;99.90
12872;DHT22;6504;53.766;9.626;2023-07-31T14:35:05;17.10;99.90
12872;DHT22;6504;53.766;9.626;2023-07-31T14:37:39;17.00;99.90
12872;DHT22;6504;53.766;9.626;2023-07-31T14:40:11;17.10;99.90
12872;DHT22;6504;53.766;9.626;2023-07-31T14:42:39;17.00;99.90
12872;DHT22;6504;53.766;9.626;2023-07-31T14:45:08;17.10;99.90
12872;DHT22;6504;53.766;9.626;2023-07-31T14:47:37;17.00;99.90
12872;DHT22;6504;53.766;9.626;2023-07-31T14:50:06;17.10;99.90
12872;DHT22;6504;53.766;9.626;2023-07-31T14:52:34;17.10;99.90
12872;DHT22;6504;53.766;9.626;2023-07-31T14:55:02;17.00;99.90
12872;DHT22;6504;53.766;9.626;2023-07-31T14:57:32;17.00;99.90
12872;DHT22;6504;53.766;9.626;2023-07-31T15:00:01;17.00;99.90
12872;DHT22;6504;53.766;9.626;2023-07-31T15:02:31;17.00;99.90
12872;DHT22;6504;53.766;9.626;2023-07-31T15:04:59;17.00;99.90
12872;DHT22;6504;53.766;9.626;2023-07-31T15:07:27;17.00;99.90
12872;DHT22;6504;53.766;9.626;2023-07-31T15:09:55;17.00;99.90
12872;DHT22;6504;53.766;9.626;2023-07-31T15:12:23;17.00;99.90
12872;DHT22;6504;53.766;9.626;2023-07-31T15:14:53;16.90;99.90
12872;DHT22;6504;53.766;9.626;2023-07-31T15:17:21;17.00;99.90
12872;DHT22;6504;53.766;9.626;2023-07-31T15:19:49;16.90;99.90
12872;DHT22;6504;53.766;9.626;2023-07-31T15:22:17;17.00;99.90
12872;DHT22;6504;53.766;9.626;2023-07-31T15:24:45;17.00;99.90
12872;DHT22;6504;53.766;9.626;2023-07-31T15:27:15;16.90;99.90
12872;DHT22;6504;53.766;9.626;2023-07-31T15:29:43;16.90;99.90
12872;DHT22;6504;53.766;9.626;2023-07-31T15:32:13;16.90;99.90
12872;DHT22;6504;53.766;9.626;2023-07-31T15:34:41;16.90;99.90
12872;DHT22;6504;53.766;9.626;2023-07-31T15:37:09;16.90;99.90
12872;DHT22;6504;53.766;9.626;2023-07-31T15:39:37;17.00;99.90
12872;DHT22;6504;53.766;9.626;2023-07-31T15:42:05;17.00;99.90
12872;DHT22;6504;53.766;9.626;2023-07-31T15:44:35;17.00;99.90
12872;DHT22;6504;53.766;9.626;2023-07-31T15:47:04;17.00;99.90
12872;DHT22;6504;53.766;9.626;2023-07-31T15:49:33;17.00;99.90
12872;DHT22;6504;53.766;9.626;2023-07-31T15:52:01;17.00;99.90
12872;DHT22;6504;53.766;9.626;2023-07-31T15:54:30;17.00;99.90
12872;DHT22;6504;53.766;9.626;2023-07-31T15:56:58;17.00;99.90